sensor_id;sensor_type;location;lat;lon;timestamp;P1;durP1;ratioP1;P2;durP2;ratioP2
42840;SDS011;28491;46.898;7.660;2023-04-10T00:01:42;8.40;;;6.57;;
42840;SDS011;28491;46.898;7.660;2023-04-10T00:04:07;10.20;;;7.32;;
42840;SDS011;28491;46.898;7.660;2023-04-10T00:06:33;9.98;;;7.93;;
42840;SDS011;28491;46.898;7.660;2023-04-10T00:08:59;9.50;;;6.80;;
42840;SDS011;28491;46.898;7.660;2023-04-10T00:11:25;9.32;;;6.88;;
42840;SDS011;28491;46.898;7.660;2023-04-10T00:13:51;9.70;;;7.03;;
42840;SDS011;28491;46.898;7.660;2023-04-10T00:16:17;11.90;;;7.28;;
42840;SDS011;28491;46.898;7.660;2023-04-10T00:18:43;11.20;;;7.15;;
42840;SDS011;28491;46.898;7.660;2023-04-10T00:21:08;10.57;;;8.07;;
42840;SDS011;28491;46.898;7.660;2023-04-10T00:23:34;8.95;;;6.85;;
42840;SDS011;28491;46.898;7.660;2023-04-10T00:26:00;11.30;;;7.68;;
42840;SDS011;28491;46.898;7.660;2023-04-10T00:28:26;10.63;;;6.65;;
42840;SDS011;28491;46.898;7.660;2023-04-10T00:30:51;10.10;;;7.80;;
42840;SDS011;28491;46.898;7.660;2023-04-10T00:33:17;11.65;;;8.07;;
42840;SDS011;28491;46.898;7.660;2023-04-10T00:35:43;10.00;;;7.55;;
42840;SDS011;28491;46.898;7.660;2023-04-10T00:38:08;9.40;;;6.75;;
42840;SDS011;28491;46.898;7.660;2023-04-10T00:40:34;10.90;;;7.13;;
42840;SDS011;28491;46.898;7.660;2023-04-10T00:42:59;9.02;;;7.15;;
42840;SDS011;28491;46.898;7.660;2023-04-10T00:45:25;8.35;;;6.70;;
42840;SDS011;28491;46.898;7.660;2023-04-10T00:47:51;9.88;;;7.47;;
42840;SDS011;28491;46.898;7.660;2023-04-10T00:50:18;9.48;;;6.75;;
42840;SDS011;28491;46.898;7.660;2023-04-10T00:52:44;10.82;;;7.35;;
42840;SDS011;28491;46.898;7.660;2023-04-10T00:55:10;11.13;;;8.35;;
42840;SDS011;28491;46.898;7.660;2023-04-10T00:57:36;9.25;;;7.18;;
42840;SDS011;28491;46.898;7.660;2023-04-10T01:00:02;10.13;;;7.50;;
42840;SDS011;28491;46.898;7.660;2023-04-10T01:02:29;9.98;;;7.95;;
42840;SDS011;28491;46.898;7.660;2023-04-10T01:04:56;9.43;;;7.85;;
42840;SDS011;28491;46.898;7.660;2023-04-10T01:07:37;10.10;;;8.05;;
42840;SDS011;28491;46.898;7.660;2023-04-10T01:10:19;8.63;;;6.80;;
42840;SDS011;28491;46.898;7.660;2023-04-10T01:15:57;12.50;;;8.40;;
42840;SDS011;28491;46.898;7.660;2023-04-10T01:18:30;11.05;;;7.80;;
42840;SDS011;28491;46.898;7.660;2023-04-10T01:21:04;12.65;;;6.97;;
42840;SDS011;28491;46.898;7.660;2023-04-10T01:26:31;9.07;;;7.10;;
42840;SDS011;28491;46.898;7.660;2023-04-10T01:29:06;9.80;;;7.40;;
42840;SDS011;28491;46.898;7.660;2023-04-10T01:31:43;11.45;;;7.60;;
42840;SDS011;28491;46.898;7.660;2023-04-10T01:34:21;10.90;;;7.90;;
42840;SDS011;28491;46.898;7.660;2023-04-10T01:36:58;10.57;;;8.57;;
42840;SDS011;28491;46.898;7.660;2023-04-10T01:39:26;11.15;;;7.80;;
42840;SDS011;28491;46.898;7.660;2023-04-10T01:41:52;10.90;;;7.82;;
42840;SDS011;28491;46.898;7.660;2023-04-10T01:44:20;10.80;;;7.43;;
42840;SDS011;28491;46.898;7.660;2023-04-10T01:46:50;10.25;;;7.70;;
42840;SDS011;28491;46.898;7.660;2023-04-10T01:49:16;10.75;;;8.02;;
42840;SDS011;28491;46.898;7.660;2023-04-10T01:51:43;10.43;;;7.18;;
42840;SDS011;28491;46.898;7.660;2023-04-10T01:54:10;10.23;;;8.05;;
42840;SDS011;28491;46.898;7.660;2023-04-10T01:56:36;10.43;;;7.40;;
42840;SDS011;28491;46.898;7.660;2023-04-10T01:59:02;11.57;;;8.63;;
42840;SDS011;28491;46.898;7.660;2023-04-10T02:01:29;10.38;;;7.82;;
42840;SDS011;28491;46.898;7.660;2023-04-10T02:03:55;10.90;;;7.65;;
42840;SDS011;28491;46.898;7.660;2023-04-10T02:06:43;11.20;;;7.70;;
42840;SDS011;28491;46.898;7.660;2023-04-10T02:09:29;9.93;;;7.22;;
42840;SDS011;28491;46.898;7.660;2023-04-10T02:12:08;8.68;;;6.75;;
42840;SDS011;28491;46.898;7.660;2023-04-10T02:14:38;10.98;;;7.97;;
42840;SDS011;28491;46.898;7.660;2023-04-10T02:17:08;9.55;;;7.20;;
42840;SDS011;28491;46.898;7.660;2023-04-10T02:19:35;12.90;;;8.27;;
42840;SDS011;28491;46.898;7.660;2023-04-10T02:22:02;11.80;;;8.05;;
42840;SDS011;28491;46.898;7.660;2023-04-10T02:24:29;11.43;;;6.93;;
42840;SDS011;28491;46.898;7.660;2023-04-10T02:26:57;11.63;;;8.27;;
42840;SDS011;28491;46.898;7.660;2023-04-10T02:29:22;10.70;;;7.75;;
42840;SDS011;28491;46.898;7.660;2023-04-10T02:31:48;10.02;;;7.32;;
42840;SDS011;28491;46.898;7.660;2023-04-10T02:34:14;9.48;;;7.45;;
42840;SDS011;28491;46.898;7.660;2023-04-10T02:36:39;13.02;;;9.13;;
42840;SDS011;28491;46.898;7.660;2023-04-10T02:39:05;12.55;;;9.35;;
42840;SDS011;28491;46.898;7.660;2023-04-10T02:41:32;12.20;;;8.43;;
42840;SDS011;28491;46.898;7.660;2023-04-10T02:43:57;10.60;;;8.63;;
42840;SDS011;28491;46.898;7.660;2023-04-10T02:46:23;11.88;;;8.90;;
42840;SDS011;28491;46.898;7.660;2023-04-10T02:48:50;11.20;;;7.90;;
42840;SDS011;28491;46.898;7.660;2023-04-10T02:51:16;11.93;;;8.18;;
42840;SDS011;28491;46.898;7.660;2023-04-10T02:53:42;12.32;;;10.00;;
42840;SDS011;28491;46.898;7.660;2023-04-10T02:56:08;12.35;;;9.23;;
42840;SDS011;28491;46.898;7.660;2023-04-10T02:58:35;14.20;;;8.45;;
42840;SDS011;28491;46.898;7.660;2023-04-10T03:01:01;15.43;;;9.23;;
42840;SDS011;28491;46.898;7.660;2023-04-10T03:03:27;13.50;;;9.63;;
42840;SDS011;28491;46.898;7.660;2023-04-10T03:05:52;13.98;;;9.70;;
42840;SDS011;28491;46.898;7.660;2023-04-10T03:08:18;11.50;;;8.57;;
42840;SDS011;28491;46.898;7.660;2023-04-10T03:10:44;12.20;;;9.15;;
42840;SDS011;28491;46.898;7.660;2023-04-10T03:13:10;12.90;;;9.80;;
42840;SDS011;28491;46.898;7.660;2023-04-10T03:15:36;11.68;;;8.48;;
42840;SDS011;28491;46.898;7.660;2023-04-10T03:18:03;11.38;;;8.23;;
42840;SDS011;28491;46.898;7.660;2023-04-10T03:20:29;11.20;;;8.73;;
42840;SDS011;28491;46.898;7.660;2023-04-10T03:22:56;13.70;;;8.95;;
42840;SDS011;28491;46.898;7.660;2023-04-10T03:25:22;11.98;;;8.60;;
42840;SDS011;28491;46.898;7.660;2023-04-10T03:27:48;10.77;;;8.13;;
42840;SDS011;28491;46.898;7.660;2023-04-10T03:30:14;12.43;;;8.75;;
42840;SDS011;28491;46.898;7.660;2023-04-10T03:32:41;13.85;;;8.95;;
42840;SDS011;28491;46.898;7.660;2023-04-10T03:35:07;12.95;;;8.80;;
42840;SDS011;28491;46.898;7.660;2023-04-10T03:37:33;13.15;;;8.70;;
42840;SDS011;28491;46.898;7.660;2023-04-10T03:39:59;11.73;;;8.98;;
42840;SDS011;28491;46.898;7.660;2023-04-10T03:42:25;12.15;;;8.85;;
42840;SDS011;28491;46.898;7.660;2023-04-10T03:44:51;11.02;;;8.23;;
42840;SDS011;28491;46.898;7.660;2023-04-10T03:47:16;12.30;;;8.85;;
42840;SDS011;28491;46.898;7.660;2023-04-10T03:49:41;12.43;;;9.15;;
42840;SDS011;28491;46.898;7.660;2023-04-10T03:52:07;15.38;;;9.50;;
42840;SDS011;28491;46.898;7.660;2023-04-10T03:54:32;12.98;;;9.10;;
42840;SDS011;28491;46.898;7.660;2023-04-10T03:56:58;13.57;;;8.50;;
42840;SDS011;28491;46.898;7.660;2023-04-10T03:59:25;12.32;;;8.88;;
42840;SDS011;28491;46.898;7.660;2023-04-10T04:01:51;12.57;;;8.30;;
42840;SDS011;28491;46.898;7.660;2023-04-10T04:04:17;13.80;;;9.10;;
42840;SDS011;28491;46.898;7.660;2023-04-10T04:06:42;13.48;;;8.30;;
42840;SDS011;28491;46.898;7.660;2023-04-10T04:09:08;13.02;;;9.82;;
42840;SDS011;28491;46.898;7.660;2023-04-10T04:11:33;12.30;;;9.10;;
42840;SDS011;28491;46.898;7.660;2023-04-10T04:13:59;13.38;;;8.73;;
42840;SDS011;28491;46.898;7.660;2023-04-10T04:16:24;14.18;;;10.30;;
42840;SDS011;28491;46.898;7.660;2023-04-10T04:18:51;12.32;;;8.35;;
42840;SDS011;28491;46.898;7.660;2023-04-10T04:21:16;12.60;;;9.77;;
42840;SDS011;28491;46.898;7.660;2023-04-10T04:23:42;12.98;;;9.27;;
42840;SDS011;28491;46.898;7.660;2023-04-10T04:26:07;15.38;;;9.68;;
42840;SDS011;28491;46.898;7.660;2023-04-10T04:28:33;12.13;;;8.82;;
42840;SDS011;28491;46.898;7.660;2023-04-10T04:30:58;13.40;;;8.65;;
42840;SDS011;28491;46.898;7.660;2023-04-10T04:33:25;13.35;;;8.27;;
42840;SDS011;28491;46.898;7.660;2023-04-10T04:35:51;10.95;;;7.90;;
42840;SDS011;28491;46.898;7.660;2023-04-10T04:38:16;11.82;;;8.40;;
42840;SDS011;28491;46.898;7.660;2023-04-10T04:40:44;11.65;;;8.68;;
42840;SDS011;28491;46.898;7.660;2023-04-10T04:43:10;12.23;;;8.35;;
42840;SDS011;28491;46.898;7.660;2023-04-10T04:45:35;13.57;;;8.30;;
42840;SDS011;28491;46.898;7.660;2023-04-10T04:48:01;11.50;;;8.63;;
42840;SDS011;28491;46.898;7.660;2023-04-10T04:50:26;14.75;;;9.30;;
42840;SDS011;28491;46.898;7.660;2023-04-10T04:52:52;15.10;;;11.88;;
42840;SDS011;28491;46.898;7.660;2023-04-10T04:55:17;12.07;;;9.18;;
42840;SDS011;28491;46.898;7.660;2023-04-10T04:57:43;13.05;;;10.43;;
42840;SDS011;28491;46.898;7.660;2023-04-10T05:00:08;11.75;;;8.68;;
42840;SDS011;28491;46.898;7.660;2023-04-10T05:02:34;11.95;;;8.32;;
42840;SDS011;28491;46.898;7.660;2023-04-10T05:05:00;13.07;;;8.27;;
42840;SDS011;28491;46.898;7.660;2023-04-10T05:07:25;12.95;;;10.07;;
42840;SDS011;28491;46.898;7.660;2023-04-10T05:09:51;10.32;;;8.57;;
42840;SDS011;28491;46.898;7.660;2023-04-10T05:12:16;14.27;;;8.95;;
42840;SDS011;28491;46.898;7.660;2023-04-10T05:14:43;11.40;;;9.13;;
42840;SDS011;28491;46.898;7.660;2023-04-10T05:17:10;14.25;;;9.77;;
42840;SDS011;28491;46.898;7.660;2023-04-10T05:19:35;13.10;;;8.32;;
42840;SDS011;28491;46.898;7.660;2023-04-10T05:22:01;15.43;;;8.80;;
42840;SDS011;28491;46.898;7.660;2023-04-10T05:24:26;14.13;;;9.35;;
42840;SDS011;28491;46.898;7.660;2023-04-10T05:26:52;17.40;;;10.68;;
42840;SDS011;28491;46.898;7.660;2023-04-10T05:29:17;16.13;;;10.60;;
42840;SDS011;28491;46.898;7.660;2023-04-10T05:31:43;16.05;;;10.43;;
42840;SDS011;28491;46.898;7.660;2023-04-10T05:34:08;14.18;;;10.38;;
42840;SDS011;28491;46.898;7.660;2023-04-10T05:36:34;13.65;;;9.90;;
42840;SDS011;28491;46.898;7.660;2023-04-10T05:39:00;12.25;;;9.25;;
42840;SDS011;28491;46.898;7.660;2023-04-10T05:41:26;12.85;;;9.30;;
42840;SDS011;28491;46.898;7.660;2023-04-10T05:43:51;14.07;;;9.30;;
42840;SDS011;28491;46.898;7.660;2023-04-10T05:46:17;12.38;;;8.38;;
42840;SDS011;28491;46.898;7.660;2023-04-10T05:48:42;10.45;;;7.35;;
42840;SDS011;28491;46.898;7.660;2023-04-10T05:51:08;14.93;;;8.57;;
42840;SDS011;28491;46.898;7.660;2023-04-10T05:53:33;11.68;;;7.20;;
42840;SDS011;28491;46.898;7.660;2023-04-10T05:55:59;10.55;;;6.90;;
42840;SDS011;28491;46.898;7.660;2023-04-10T05:58:25;12.63;;;9.13;;
42840;SDS011;28491;46.898;7.660;2023-04-10T06:00:52;10.10;;;6.95;;
42840;SDS011;28491;46.898;7.660;2023-04-10T06:03:17;8.88;;;6.95;;
42840;SDS011;28491;46.898;7.660;2023-04-10T06:05:43;10.25;;;7.35;;
42840;SDS011;28491;46.898;7.660;2023-04-10T06:08:09;9.40;;;6.47;;
42840;SDS011;28491;46.898;7.660;2023-04-10T06:10:35;9.93;;;6.78;;
42840;SDS011;28491;46.898;7.660;2023-04-10T06:13:01;7.82;;;6.35;;
42840;SDS011;28491;46.898;7.660;2023-04-10T06:15:26;10.63;;;7.10;;
42840;SDS011;28491;46.898;7.660;2023-04-10T06:17:52;8.65;;;6.53;;
42840;SDS011;28491;46.898;7.660;2023-04-10T06:20:18;11.68;;;7.78;;
42840;SDS011;28491;46.898;7.660;2023-04-10T06:22:43;8.70;;;6.90;;
42840;SDS011;28491;46.898;7.660;2023-04-10T06:25:09;7.35;;;6.22;;
42840;SDS011;28491;46.898;7.660;2023-04-10T06:27:35;9.95;;;7.10;;
42840;SDS011;28491;46.898;7.660;2023-04-10T06:30:01;8.57;;;6.32;;
42840;SDS011;28491;46.898;7.660;2023-04-10T06:32:27;8.93;;;5.85;;
42840;SDS011;28491;46.898;7.660;2023-04-10T06:34:53;7.82;;;6.63;;
42840;SDS011;28491;46.898;7.660;2023-04-10T06:37:18;9.55;;;7.25;;
42840;SDS011;28491;46.898;7.660;2023-04-10T06:39:44;8.90;;;7.85;;
42840;SDS011;28491;46.898;7.660;2023-04-10T06:42:09;10.40;;;7.15;;
42840;SDS011;28491;46.898;7.660;2023-04-10T06:44:35;9.30;;;8.18;;
42840;SDS011;28491;46.898;7.660;2023-04-10T06:47:00;12.55;;;7.80;;
42840;SDS011;28491;46.898;7.660;2023-04-10T06:49:26;9.32;;;7.35;;
42840;SDS011;28491;46.898;7.660;2023-04-10T06:51:51;8.27;;;6.95;;
42840;SDS011;28491;46.898;7.660;2023-04-10T06:54:17;7.13;;;6.35;;
42840;SDS011;28491;46.898;7.660;2023-04-10T06:56:42;9.40;;;7.55;;
42840;SDS011;28491;46.898;7.660;2023-04-10T06:59:08;10.25;;;6.68;;
42840;SDS011;28491;46.898;7.660;2023-04-10T07:01:33;9.02;;;6.60;;
42840;SDS011;28491;46.898;7.660;2023-04-10T07:03:59;8.43;;;7.05;;
42840;SDS011;28491;46.898;7.660;2023-04-10T07:06:25;8.25;;;6.97;;
42840;SDS011;28491;46.898;7.660;2023-04-10T07:08:51;12.43;;;10.43;;
42840;SDS011;28491;46.898;7.660;2023-04-10T07:11:16;8.75;;;6.45;;
42840;SDS011;28491;46.898;7.660;2023-04-10T07:13:42;8.80;;;6.80;;
42840;SDS011;28491;46.898;7.660;2023-04-10T07:16:08;10.23;;;8.52;;
42840;SDS011;28491;46.898;7.660;2023-04-10T07:18:34;10.32;;;8.18;;
42840;SDS011;28491;46.898;7.660;2023-04-10T07:21:02;7.93;;;6.25;;
42840;SDS011;28491;46.898;7.660;2023-04-10T07:23:33;9.07;;;7.30;;
42840;SDS011;28491;46.898;7.660;2023-04-10T07:25:59;8.77;;;7.25;;
42840;SDS011;28491;46.898;7.660;2023-04-10T07:28:25;7.63;;;6.13;;
42840;SDS011;28491;46.898;7.660;2023-04-10T07:30:50;7.40;;;5.72;;
42840;SDS011;28491;46.898;7.660;2023-04-10T07:33:16;9.23;;;6.35;;
42840;SDS011;28491;46.898;7.660;2023-04-10T07:35:41;7.20;;;5.93;;
42840;SDS011;28491;46.898;7.660;2023-04-10T07:38:10;6.70;;;5.53;;
42840;SDS011;28491;46.898;7.660;2023-04-10T07:40:37;6.28;;;4.97;;
42840;SDS011;28491;46.898;7.660;2023-04-10T07:43:02;10.70;;;5.28;;
42840;SDS011;28491;46.898;7.660;2023-04-10T07:45:28;5.57;;;4.97;;
42840;SDS011;28491;46.898;7.660;2023-04-10T07:47:53;5.80;;;5.07;;
42840;SDS011;28491;46.898;7.660;2023-04-10T07:50:19;6.10;;;5.38;;
42840;SDS011;28491;46.898;7.660;2023-04-10T07:52:45;5.35;;;4.70;;
42840;SDS011;28491;46.898;7.660;2023-04-10T07:55:12;5.85;;;4.82;;
42840;SDS011;28491;46.898;7.660;2023-04-10T07:57:37;5.85;;;4.88;;
42840;SDS011;28491;46.898;7.660;2023-04-10T08:00:03;5.82;;;5.13;;
42840;SDS011;28491;46.898;7.660;2023-04-10T08:02:29;5.10;;;4.25;;
42840;SDS011;28491;46.898;7.660;2023-04-10T08:04:54;6.15;;;4.82;;
42840;SDS011;28491;46.898;7.660;2023-04-10T08:07:20;4.97;;;4.10;;
42840;SDS011;28491;46.898;7.660;2023-04-10T08:09:46;5.05;;;4.40;;
42840;SDS011;28491;46.898;7.660;2023-04-10T08:12:12;5.07;;;4.57;;
42840;SDS011;28491;46.898;7.660;2023-04-10T08:14:37;6.00;;;5.10;;
42840;SDS011;28491;46.898;7.660;2023-04-10T08:17:03;5.32;;;4.82;;
42840;SDS011;28491;46.898;7.660;2023-04-10T08:19:28;7.68;;;6.68;;
42840;SDS011;28491;46.898;7.660;2023-04-10T08:21:54;4.80;;;4.30;;
42840;SDS011;28491;46.898;7.660;2023-04-10T08:24:19;5.28;;;4.03;;
42840;SDS011;28491;46.898;7.660;2023-04-10T08:26:46;4.50;;;4.00;;
42840;SDS011;28491;46.898;7.660;2023-04-10T08:29:12;4.60;;;4.13;;
42840;SDS011;28491;46.898;7.660;2023-04-10T08:31:38;4.22;;;3.83;;
42840;SDS011;28491;46.898;7.660;2023-04-10T08:34:03;4.88;;;3.70;;
42840;SDS011;28491;46.898;7.660;2023-04-10T08:36:29;4.07;;;3.40;;
42840;SDS011;28491;46.898;7.660;2023-04-10T08:38:55;4.95;;;3.55;;
42840;SDS011;28491;46.898;7.660;2023-04-10T08:41:20;3.95;;;3.40;;
42840;SDS011;28491;46.898;7.660;2023-04-10T08:43:46;7.10;;;5.13;;
42840;SDS011;28491;46.898;7.660;2023-04-10T08:46:13;4.30;;;3.90;;
42840;SDS011;28491;46.898;7.660;2023-04-10T08:48:46;4.57;;;3.85;;
42840;SDS011;28491;46.898;7.660;2023-04-10T08:51:20;4.28;;;3.65;;
42840;SDS011;28491;46.898;7.660;2023-04-10T08:53:50;5.00;;;3.70;;
42840;SDS011;28491;46.898;7.660;2023-04-10T08:56:17;4.63;;;3.20;;
42840;SDS011;28491;46.898;7.660;2023-04-10T08:58:44;4.00;;;3.22;;
42840;SDS011;28491;46.898;7.660;2023-04-10T09:01:10;3.38;;;3.03;;
42840;SDS011;28491;46.898;7.660;2023-04-10T09:03:36;3.90;;;2.60;;
42840;SDS011;28491;46.898;7.660;2023-04-10T09:06:02;3.60;;;2.75;;
42840;SDS011;28491;46.898;7.660;2023-04-10T09:08:29;3.25;;;2.80;;
42840;SDS011;28491;46.898;7.660;2023-04-10T09:10:54;6.13;;;3.90;;
42840;SDS011;28491;46.898;7.660;2023-04-10T09:13:36;5.25;;;3.30;;
42840;SDS011;28491;46.898;7.660;2023-04-10T09:16:06;4.10;;;3.42;;
42840;SDS011;28491;46.898;7.660;2023-04-10T09:21:10;4.70;;;3.55;;
42840;SDS011;28491;46.898;7.660;2023-04-10T09:23:37;5.10;;;4.28;;
42840;SDS011;28491;46.898;7.660;2023-04-10T09:28:54;4.18;;;3.35;;
42840;SDS011;28491;46.898;7.660;2023-04-10T09:31:28;5.03;;;3.33;;
42840;SDS011;28491;46.898;7.660;2023-04-10T09:34:11;3.78;;;2.92;;
42840;SDS011;28491;46.898;7.660;2023-04-10T09:36:53;5.45;;;3.42;;
42840;SDS011;28491;46.898;7.660;2023-04-10T09:39:19;6.22;;;3.75;;
42840;SDS011;28491;46.898;7.660;2023-04-10T09:41:49;4.10;;;3.60;;
42840;SDS011;28491;46.898;7.660;2023-04-10T09:44:32;4.45;;;3.45;;
42840;SDS011;28491;46.898;7.660;2023-04-10T09:49:44;3.88;;;3.20;;
42840;SDS011;28491;46.898;7.660;2023-04-10T09:52:21;5.00;;;3.38;;
42840;SDS011;28491;46.898;7.660;2023-04-10T09:54:49;4.13;;;3.40;;
42840;SDS011;28491;46.898;7.660;2023-04-10T09:57:16;4.68;;;3.83;;
42840;SDS011;28491;46.898;7.660;2023-04-10T09:59:43;4.93;;;2.92;;
42840;SDS011;28491;46.898;7.660;2023-04-10T10:02:13;3.75;;;3.17;;
42840;SDS011;28491;46.898;7.660;2023-04-10T10:04:40;4.20;;;3.35;;
42840;SDS011;28491;46.898;7.660;2023-04-10T10:07:08;4.22;;;3.40;;
42840;SDS011;28491;46.898;7.660;2023-04-10T10:09:34;3.53;;;3.00;;
42840;SDS011;28491;46.898;7.660;2023-04-10T10:12:01;3.83;;;3.30;;
42840;SDS011;28491;46.898;7.660;2023-04-10T10:14:27;3.67;;;2.95;;
42840;SDS011;28491;46.898;7.660;2023-04-10T10:16:54;3.35;;;2.67;;
42840;SDS011;28491;46.898;7.660;2023-04-10T10:19:40;5.90;;;3.63;;
42840;SDS011;28491;46.898;7.660;2023-04-10T10:22:11;4.00;;;3.08;;
42840;SDS011;28491;46.898;7.660;2023-04-10T10:24:38;7.75;;;2.97;;
42840;SDS011;28491;46.898;7.660;2023-04-10T10:27:08;4.20;;;3.17;;
42840;SDS011;28491;46.898;7.660;2023-04-10T10:29:34;3.72;;;3.25;;
42840;SDS011;28491;46.898;7.660;2023-04-10T10:32:03;3.67;;;2.92;;
42840;SDS011;28491;46.898;7.660;2023-04-10T10:34:30;4.07;;;3.30;;
42840;SDS011;28491;46.898;7.660;2023-04-10T10:36:57;3.60;;;2.90;;
42840;SDS011;28491;46.898;7.660;2023-04-10T10:42:37;5.68;;;3.88;;
42840;SDS011;28491;46.898;7.660;2023-04-10T10:47:44;5.75;;;2.97;;
42840;SDS011;28491;46.898;7.660;2023-04-10T10:50:14;4.65;;;2.60;;
42840;SDS011;28491;46.898;7.660;2023-04-10T10:52:44;3.63;;;2.67;;
42840;SDS011;28491;46.898;7.660;2023-04-10T10:57:48;3.83;;;2.97;;
42840;SDS011;28491;46.898;7.660;2023-04-10T11:00:16;3.25;;;2.65;;
42840;SDS011;28491;46.898;7.660;2023-04-10T11:02:41;2.83;;;2.35;;
42840;SDS011;28491;46.898;7.660;2023-04-10T11:05:07;6.47;;;2.60;;
42840;SDS011;28491;46.898;7.660;2023-04-10T11:08:06;3.45;;;2.72;;
42840;SDS011;28491;46.898;7.660;2023-04-10T11:13:29;3.30;;;2.20;;
42840;SDS011;28491;46.898;7.660;2023-04-10T11:15:56;3.83;;;2.58;;
42840;SDS011;28491;46.898;7.660;2023-04-10T11:23:37;2.95;;;2.13;;
42840;SDS011;28491;46.898;7.660;2023-04-10T11:29:04;2.97;;;2.30;;
42840;SDS011;28491;46.898;7.660;2023-04-10T11:32:00;2.88;;;2.10;;
42840;SDS011;28491;46.898;7.660;2023-04-10T11:34:27;2.42;;;1.65;;
42840;SDS011;28491;46.898;7.660;2023-04-10T11:36:54;2.15;;;1.65;;
42840;SDS011;28491;46.898;7.660;2023-04-10T11:39:20;2.50;;;1.60;;
42840;SDS011;28491;46.898;7.660;2023-04-10T11:41:47;2.30;;;1.75;;
42840;SDS011;28491;46.898;7.660;2023-04-10T11:44:14;3.17;;;2.03;;
42840;SDS011;28491;46.898;7.660;2023-04-10T11:46:42;2.53;;;1.97;;
42840;SDS011;28491;46.898;7.660;2023-04-10T11:49:16;4.03;;;2.25;;
42840;SDS011;28491;46.898;7.660;2023-04-10T11:51:47;4.75;;;3.20;;
42840;SDS011;28491;46.898;7.660;2023-04-10T11:54:17;3.67;;;2.65;;
42840;SDS011;28491;46.898;7.660;2023-04-10T11:57:06;5.55;;;2.78;;
42840;SDS011;28491;46.898;7.660;2023-04-10T11:59:36;3.88;;;2.97;;
42840;SDS011;28491;46.898;7.660;2023-04-10T12:02:05;4.88;;;3.35;;
42840;SDS011;28491;46.898;7.660;2023-04-10T12:04:35;4.20;;;2.80;;
42840;SDS011;28491;46.898;7.660;2023-04-10T12:07:01;3.17;;;2.63;;
42840;SDS011;28491;46.898;7.660;2023-04-10T12:09:27;4.07;;;2.70;;
42840;SDS011;28491;46.898;7.660;2023-04-10T12:11:56;5.38;;;3.00;;
42840;SDS011;28491;46.898;7.660;2023-04-10T12:14:31;3.03;;;2.53;;
42840;SDS011;28491;46.898;7.660;2023-04-10T12:17:09;4.32;;;3.08;;
42840;SDS011;28491;46.898;7.660;2023-04-10T12:19:36;5.13;;;3.35;;
42840;SDS011;28491;46.898;7.660;2023-04-10T12:22:02;4.85;;;2.90;;
42840;SDS011;28491;46.898;7.660;2023-04-10T12:24:47;4.40;;;2.35;;
42840;SDS011;28491;46.898;7.660;2023-04-10T12:29:40;3.08;;;2.63;;
42840;SDS011;28491;46.898;7.660;2023-04-10T12:32:07;2.80;;;2.38;;
42840;SDS011;28491;46.898;7.660;2023-04-10T12:34:33;2.83;;;2.42;;
42840;SDS011;28491;46.898;7.660;2023-04-10T12:36:59;2.90;;;2.45;;
42840;SDS011;28491;46.898;7.660;2023-04-10T12:39:24;3.30;;;2.35;;
42840;SDS011;28491;46.898;7.660;2023-04-10T12:41:50;2.72;;;2.30;;
42840;SDS011;28491;46.898;7.660;2023-04-10T12:44:16;3.58;;;2.72;;
42840;SDS011;28491;46.898;7.660;2023-04-10T12:46:43;6.20;;;3.92;;
42840;SDS011;28491;46.898;7.660;2023-04-10T12:49:13;7.80;;;4.38;;
42840;SDS011;28491;46.898;7.660;2023-04-10T12:51:41;6.25;;;3.42;;
42840;SDS011;28491;46.898;7.660;2023-04-10T12:54:08;6.05;;;3.22;;
42840;SDS011;28491;46.898;7.660;2023-04-10T12:56:40;3.40;;;2.40;;
42840;SDS011;28491;46.898;7.660;2023-04-10T12:59:06;3.03;;;2.58;;
42840;SDS011;28491;46.898;7.660;2023-04-10T13:01:32;3.55;;;2.53;;
42840;SDS011;28491;46.898;7.660;2023-04-10T13:03:57;4.63;;;2.55;;
42840;SDS011;28491;46.898;7.660;2023-04-10T13:06:23;4.22;;;2.83;;
42840;SDS011;28491;46.898;7.660;2023-04-10T13:08:48;4.40;;;3.35;;
42840;SDS011;28491;46.898;7.660;2023-04-10T13:11:16;4.50;;;3.15;;
42840;SDS011;28491;46.898;7.660;2023-04-10T13:13:42;3.53;;;2.60;;
42840;SDS011;28491;46.898;7.660;2023-04-10T13:16:07;3.22;;;2.63;;
42840;SDS011;28491;46.898;7.660;2023-04-10T13:18:36;3.95;;;2.72;;
42840;SDS011;28491;46.898;7.660;2023-04-10T13:21:02;3.28;;;2.53;;
42840;SDS011;28491;46.898;7.660;2023-04-10T13:23:28;4.03;;;2.97;;
42840;SDS011;28491;46.898;7.660;2023-04-10T13:25:54;4.05;;;2.85;;
42840;SDS011;28491;46.898;7.660;2023-04-10T13:28:20;4.30;;;3.00;;
42840;SDS011;28491;46.898;7.660;2023-04-10T13:30:46;4.15;;;3.22;;
42840;SDS011;28491;46.898;7.660;2023-04-10T13:33:12;4.10;;;3.10;;
42840;SDS011;28491;46.898;7.660;2023-04-10T13:35:37;4.00;;;3.20;;
42840;SDS011;28491;46.898;7.660;2023-04-10T13:38:04;3.67;;;2.33;;
42840;SDS011;28491;46.898;7.660;2023-04-10T13:40:30;3.85;;;2.97;;
42840;SDS011;28491;46.898;7.660;2023-04-10T13:42:56;2.65;;;2.22;;
42840;SDS011;28491;46.898;7.660;2023-04-10T13:45:21;4.43;;;2.83;;
42840;SDS011;28491;46.898;7.660;2023-04-10T13:47:47;3.95;;;3.28;;
42840;SDS011;28491;46.898;7.660;2023-04-10T13:50:12;3.95;;;2.90;;
42840;SDS011;28491;46.898;7.660;2023-04-10T13:52:38;6.18;;;3.22;;
42840;SDS011;28491;46.898;7.660;2023-04-10T13:55:04;3.85;;;2.72;;
42840;SDS011;28491;46.898;7.660;2023-04-10T13:57:30;6.25;;;2.92;;
42840;SDS011;28491;46.898;7.660;2023-04-10T13:59:56;3.83;;;3.00;;
42840;SDS011;28491;46.898;7.660;2023-04-10T14:02:21;3.33;;;2.38;;
42840;SDS011;28491;46.898;7.660;2023-04-10T14:04:47;4.38;;;2.80;;
42840;SDS011;28491;46.898;7.660;2023-04-10T14:07:12;4.55;;;2.80;;
42840;SDS011;28491;46.898;7.660;2023-04-10T14:09:38;5.63;;;3.05;;
42840;SDS011;28491;46.898;7.660;2023-04-10T14:12:03;3.70;;;2.53;;
42840;SDS011;28491;46.898;7.660;2023-04-10T14:14:29;7.50;;;4.40;;
42840;SDS011;28491;46.898;7.660;2023-04-10T14:16:54;5.57;;;3.92;;
42840;SDS011;28491;46.898;7.660;2023-04-10T14:19:21;4.80;;;2.92;;
42840;SDS011;28491;46.898;7.660;2023-04-10T14:21:47;3.28;;;2.58;;
42840;SDS011;28491;46.898;7.660;2023-04-10T14:24:12;3.03;;;2.50;;
42840;SDS011;28491;46.898;7.660;2023-04-10T14:26:38;3.65;;;2.45;;
42840;SDS011;28491;46.898;7.660;2023-04-10T14:29:03;19.25;;;3.40;;
42840;SDS011;28491;46.898;7.660;2023-04-10T14:31:31;5.57;;;3.30;;
42840;SDS011;28491;46.898;7.660;2023-04-10T14:33:57;4.90;;;3.00;;
42840;SDS011;28491;46.898;7.660;2023-04-10T14:36:22;4.22;;;3.20;;
42840;SDS011;28491;46.898;7.660;2023-04-10T14:38:48;4.40;;;2.65;;
42840;SDS011;28491;46.898;7.660;2023-04-10T14:41:13;3.90;;;3.10;;
42840;SDS011;28491;46.898;7.660;2023-04-10T14:43:39;3.40;;;2.58;;
42840;SDS011;28491;46.898;7.660;2023-04-10T14:46:05;4.40;;;3.15;;
42840;SDS011;28491;46.898;7.660;2023-04-10T14:48:30;4.00;;;3.10;;
42840;SDS011;28491;46.898;7.660;2023-04-10T14:50:56;4.57;;;3.58;;
42840;SDS011;28491;46.898;7.660;2023-04-10T14:53:23;4.45;;;3.30;;
42840;SDS011;28491;46.898;7.660;2023-04-10T14:55:48;5.70;;;3.95;;
42840;SDS011;28491;46.898;7.660;2023-04-10T14:58:14;4.78;;;3.20;;
42840;SDS011;28491;46.898;7.660;2023-04-10T15:00:40;4.38;;;2.78;;
42840;SDS011;28491;46.898;7.660;2023-04-10T15:03:06;5.18;;;2.83;;
42840;SDS011;28491;46.898;7.660;2023-04-10T15:05:32;3.20;;;2.40;;
42840;SDS011;28491;46.898;7.660;2023-04-10T15:07:58;3.22;;;2.60;;
42840;SDS011;28491;46.898;7.660;2023-04-10T15:10:23;3.97;;;3.38;;
42840;SDS011;28491;46.898;7.660;2023-04-10T15:12:49;4.80;;;3.08;;
42840;SDS011;28491;46.898;7.660;2023-04-10T15:15:15;3.30;;;2.70;;
42840;SDS011;28491;46.898;7.660;2023-04-10T15:17:41;3.95;;;2.17;;
42840;SDS011;28491;46.898;7.660;2023-04-10T15:20:07;1.73;;;1.30;;